createdAt,value
2018-05-04T00:00:59.995Z,6.30
2018-05-04T00:03:27.545Z,16.30
2018-05-04T00:05:55.105Z,8.53
2018-05-04T00:08:22.597Z,11.27
2018-05-04T00:10:50.112Z,7.10
2018-05-04T00:13:17.623Z,6.03
2018-05-04T00:15:45.164Z,6.00
2018-05-04T00:18:12.661Z,5.60
2018-05-04T00:20:40.978Z,5.90
2018-05-04T00:23:08.465Z,5.97
2018-05-04T00:25:35.997Z,5.47
2018-05-04T00:28:03.543Z,5.30
2018-05-04T00:30:31.065Z,5.10
2018-05-04T00:32:59.370Z,5.10
2018-05-04T00:35:26.925Z,5.17
2018-05-04T00:37:54.429Z,5.13
2018-05-04T00:40:21.974Z,4.33
2018-05-04T00:42:49.532Z,4.80
2018-05-04T00:45:17.041Z,4.83
2018-05-04T00:47:45.299Z,4.73
2018-05-04T00:50:12.834Z,4.90
2018-05-04T00:52:40.329Z,4.43
2018-05-04T00:55:08.622Z,5.50
2018-05-04T00:57:36.930Z,4.40
2018-05-04T01:00:04.430Z,4.53
2018-05-04T01:02:31.921Z,4.40
2018-05-04T01:04:59.462Z,4.50
2018-05-04T01:07:27.738Z,4.20
2018-05-04T01:09:56.036Z,4.20
2018-05-04T01:12:24.340Z,3.80
2018-05-04T01:14:51.867Z,4.67
2018-05-04T01:17:19.382Z,4.93
2018-05-04T01:19:46.928Z,4.60
2018-05-04T01:22:14.417Z,4.53
2018-05-04T01:24:42.712Z,4.30
2018-05-04T01:27:10.226Z,4.70
2018-05-04T01:29:37.714Z,4.67
2018-05-04T01:32:05.249Z,4.40
2018-05-04T01:34:32.782Z,4.87
2018-05-04T01:37:00.277Z,4.80
2018-05-04T01:39:27.801Z,4.50
2018-05-04T01:41:55.309Z,4.43
2018-05-04T01:44:23.597Z,5.10
2018-05-04T01:46:51.857Z,4.57
2018-05-04T01:49:19.404Z,4.80
2018-05-04T01:51:46.906Z,4.30
2018-05-04T01:54:14.437Z,4.17
2018-05-04T01:56:42.730Z,4.37
2018-05-04T01:59:11.024Z,4.30
2018-05-04T02:01:38.525Z,4.73
2018-05-04T02:04:06.066Z,4.43
2018-05-04T02:06:33.582Z,4.33
2018-05-04T02:09:01.845Z,4.90
2018-05-04T02:11:30.135Z,4.50
2018-05-04T02:13:57.679Z,4.40
2018-05-04T02:16:25.948Z,5.17
2018-05-04T02:18:53.472Z,4.33
2018-05-04T02:21:21.042Z,5.30
2018-05-04T02:23:48.546Z,4.77
2018-05-04T02:26:16.801Z,4.80
2018-05-04T02:28:44.354Z,4.80
2018-05-04T02:31:12.678Z,4.80
2018-05-04T02:33:40.192Z,4.57
2018-05-04T02:36:08.506Z,4.73
2018-05-04T02:38:36.033Z,4.33
2018-05-04T02:41:03.535Z,4.60
2018-05-04T02:43:31.062Z,4.90
2018-05-04T02:45:59.354Z,4.90
2018-05-04T02:48:26.876Z,5.03
2018-05-04T02:50:54.410Z,5.13
2018-05-04T02:53:21.898Z,4.90
2018-05-04T02:55:49.435Z,4.87
2018-05-04T02:58:16.937Z,5.17
2018-05-04T03:00:45.234Z,5.47
2018-05-04T03:03:12.767Z,4.87
2018-05-04T03:05:41.062Z,4.80
2018-05-04T03:08:08.596Z,5.00
2018-05-04T03:10:36.878Z,4.40
2018-05-04T03:13:05.154Z,5.30
2018-05-04T03:15:33.464Z,5.10
2018-05-04T03:18:00.982Z,4.90
2018-05-04T03:20:29.281Z,5.30
2018-05-04T03:22:56.790Z,5.00
2018-05-04T03:25:24.316Z,5.30
2018-05-04T03:27:52.630Z,4.53
2018-05-04T03:30:20.129Z,5.13
2018-05-04T03:32:48.428Z,5.73
2018-05-04T03:35:15.942Z,4.43
2018-05-04T03:37:43.486Z,5.10
2018-05-04T03:40:10.991Z,5.33
2018-05-04T03:42:39.374Z,5.60
2018-05-04T03:45:06.894Z,4.90
2018-05-04T03:47:35.159Z,5.23
2018-05-04T03:50:02.690Z,4.50
2018-05-04T03:52:30.204Z,5.20
2018-05-04T03:54:58.495Z,5.00
2018-05-04T03:57:38.067Z,6.20
2018-05-04T04:00:17.420Z,5.43
2018-05-04T04:02:56.869Z,5.87
2018-05-04T04:05:24.393Z,5.07
2018-05-04T04:07:52.712Z,4.93
2018-05-04T04:10:20.204Z,5.23
2018-05-04T04:12:47.699Z,5.00
2018-05-04T04:15:15.221Z,5.40
2018-05-04T04:17:42.741Z,4.93
2018-05-04T04:20:10.265Z,5.50
2018-05-04T04:22:37.766Z,5.63
2018-05-04T04:25:05.320Z,5.87
2018-05-04T04:27:32.818Z,5.90
2018-05-04T04:30:00.355Z,5.47
2018-05-04T04:32:28.655Z,6.10
2018-05-04T04:34:56.198Z,6.07
2018-05-04T04:37:24.452Z,5.53
2018-05-04T04:39:51.941Z,5.10
2018-05-04T04:42:19.486Z,5.60
2018-05-04T04:44:47.749Z,6.23
2018-05-04T04:47:15.297Z,5.27
2018-05-04T04:49:42.806Z,5.17
2018-05-04T04:52:10.315Z,5.77
2018-05-04T04:54:37.854Z,5.70
2018-05-04T04:57:05.359Z,5.50
2018-05-04T04:59:32.878Z,5.80
2018-05-04T05:02:00.398Z,5.40
2018-05-04T05:04:27.989Z,5.63
2018-05-04T05:06:55.505Z,5.50
2018-05-04T05:09:23.018Z,5.80
2018-05-04T05:11:50.559Z,6.40
2018-05-04T05:14:18.113Z,6.07
2018-05-04T05:16:45.622Z,6.13
2018-05-04T05:19:13.895Z,5.53
2018-05-04T05:21:42.188Z,6.10
2018-05-04T05:24:09.719Z,5.07
2018-05-04T05:26:37.220Z,5.80
2018-05-04T05:29:04.786Z,5.10
2018-05-04T05:31:32.295Z,5.30
2018-05-04T05:33:59.802Z,5.63
2018-05-04T05:36:27.333Z,5.73
2018-05-04T05:38:55.587Z,5.33
2018-05-04T05:41:23.086Z,5.50
2018-05-04T05:43:50.631Z,5.13
2018-05-04T05:46:18.885Z,5.50
2018-05-04T05:48:47.207Z,5.20
2018-05-04T05:51:14.823Z,5.30
2018-05-04T05:53:42.367Z,5.57
2018-05-04T05:56:09.917Z,5.67
2018-05-04T05:58:37.435Z,5.50
2018-05-04T06:01:04.955Z,6.10
2018-05-04T06:03:32.477Z,5.07
2018-05-04T06:06:00.075Z,5.70
2018-05-04T06:08:27.579Z,5.50
2018-05-04T06:10:55.075Z,5.50
2018-05-04T06:13:22.620Z,6.03
2018-05-04T06:15:50.130Z,5.50
2018-05-04T06:18:18.456Z,5.50
2018-05-04T06:20:46.001Z,5.47
2018-05-04T06:23:13.479Z,6.00
2018-05-04T06:25:41.013Z,5.63
2018-05-04T06:28:08.517Z,6.33
2018-05-04T06:30:36.086Z,5.50
2018-05-04T06:33:04.376Z,5.97
2018-05-04T06:35:31.893Z,5.67
2018-05-04T06:37:59.421Z,5.43
2018-05-04T06:40:26.955Z,5.83
2018-05-04T06:42:54.496Z,5.23
2018-05-04T06:45:22.761Z,5.70
2018-05-04T06:47:50.279Z,5.83
2018-05-04T06:50:17.837Z,6.00
2018-05-04T06:52:45.378Z,5.20
2018-05-04T06:55:12.907Z,5.60
2018-05-04T06:57:41.230Z,6.00
2018-05-04T07:00:08.757Z,6.20
2018-05-04T07:02:37.037Z,6.13
2018-05-04T07:05:05.351Z,6.00
2018-05-04T07:07:32.869Z,5.53
2018-05-04T07:10:01.170Z,6.20
2018-05-04T07:12:28.705Z,6.40
2018-05-04T07:14:56.980Z,5.90
2018-05-04T07:17:25.289Z,6.03
2018-05-04T07:19:52.825Z,6.10
2018-05-04T07:22:21.146Z,5.87
2018-05-04T07:24:48.680Z,6.30
2018-05-04T07:27:16.184Z,6.60
2018-05-04T07:29:43.680Z,6.13
2018-05-04T07:32:11.230Z,5.93
2018-05-04T07:34:39.508Z,6.27
2018-05-04T07:37:07.813Z,6.30
2018-05-04T07:39:35.331Z,6.00
2018-05-04T07:42:03.589Z,6.60
2018-05-04T07:44:31.110Z,5.50
2018-05-04T07:46:58.648Z,5.67
2018-05-04T07:49:26.182Z,6.00
2018-05-04T07:51:54.479Z,5.70
2018-05-04T07:54:22.007Z,5.90
2018-05-04T07:56:49.525Z,6.80
2018-05-04T07:59:17.070Z,5.83
2018-05-04T08:01:44.602Z,5.90
2018-05-04T08:04:12.889Z,6.10
2018-05-04T08:06:40.469Z,6.40
2018-05-04T08:09:07.961Z,5.93
2018-05-04T08:11:35.506Z,5.63
2018-05-04T08:14:03.008Z,5.97
2018-05-04T08:16:31.301Z,5.73
2018-05-04T08:18:58.793Z,5.60
2018-05-04T08:21:26.354Z,5.97
2018-05-04T08:23:53.871Z,6.13
2018-05-04T08:26:22.174Z,5.90
2018-05-04T08:28:49.696Z,6.23
2018-05-04T08:31:17.981Z,6.03
2018-05-04T08:33:45.501Z,6.20
2018-05-04T08:36:13.029Z,6.17
2018-05-04T08:38:40.530Z,6.60
2018-05-04T08:41:08.854Z,5.87
2018-05-04T08:43:36.372Z,6.20
2018-05-04T08:46:04.649Z,6.30
2018-05-04T08:48:32.939Z,5.97
2018-05-04T08:51:01.283Z,6.13
2018-05-04T08:53:29.506Z,6.80
2018-05-04T08:55:57.996Z,6.93
2018-05-04T08:58:29.772Z,6.23
2018-05-04T09:00:57.330Z,7.07
2018-05-04T09:03:24.833Z,6.80
2018-05-04T09:05:52.375Z,7.20
2018-05-04T09:08:19.887Z,7.47
2018-05-04T09:10:47.425Z,7.07
2018-05-04T09:13:15.681Z,6.27
2018-05-04T09:15:43.558Z,6.30
2018-05-04T09:18:11.836Z,6.33
2018-05-04T09:20:40.150Z,6.90
2018-05-04T09:23:07.685Z,7.13
2018-05-04T09:25:35.957Z,6.50
2018-05-04T09:28:04.257Z,7.20
2018-05-04T09:30:31.762Z,6.60
2018-05-04T09:32:59.284Z,6.80
2018-05-04T09:35:26.809Z,6.70
2018-05-04T09:37:55.118Z,7.30
2018-05-04T09:40:22.609Z,6.50
2018-05-04T09:42:51.004Z,8.17
2018-05-04T09:45:18.375Z,7.10
2018-05-04T09:47:46.636Z,7.40
2018-05-04T09:50:14.159Z,7.33
2018-05-04T09:52:41.644Z,6.63
2018-05-04T09:55:09.180Z,7.00
2018-05-04T09:57:36.705Z,7.10
2018-05-04T10:00:04.972Z,6.43
2018-05-04T10:02:33.275Z,7.87
2018-05-04T10:05:00.806Z,7.63
2018-05-04T10:07:29.071Z,7.70
2018-05-04T10:09:57.353Z,8.07
2018-05-04T10:12:25.649Z,6.60
2018-05-04T10:14:53.140Z,7.10
2018-05-04T10:17:20.660Z,6.80
2018-05-04T10:19:48.177Z,6.40
2018-05-04T10:22:15.726Z,6.70
2018-05-04T10:24:43.251Z,6.23
2018-05-04T10:27:10.760Z,6.63
2018-05-04T10:29:38.281Z,6.47
2018-05-04T10:32:05.833Z,6.90
2018-05-04T10:34:33.369Z,6.03
2018-05-04T10:37:01.668Z,6.90
2018-05-04T10:39:29.215Z,6.17
2018-05-04T10:41:56.712Z,6.40
2018-05-04T10:44:24.203Z,6.37
2018-05-04T10:46:52.529Z,6.57
2018-05-04T10:49:20.017Z,6.13
2018-05-04T10:51:47.541Z,6.43
2018-05-04T10:54:15.046Z,7.53
2018-05-04T10:56:42.570Z,7.00
2018-05-04T10:59:10.085Z,6.33
2018-05-04T11:01:38.351Z,6.73
2018-05-04T11:04:06.648Z,6.90
2018-05-04T11:06:34.129Z,6.50
2018-05-04T11:09:01.653Z,6.53
2018-05-04T11:11:29.150Z,7.10
2018-05-04T11:13:56.659Z,7.13
2018-05-04T11:16:25.022Z,6.37
2018-05-04T11:18:52.490Z,7.10
2018-05-04T11:21:20.043Z,7.10
2018-05-04T11:23:47.578Z,7.03
2018-05-04T11:26:15.147Z,7.73
2018-05-04T11:28:42.650Z,7.30
2018-05-04T11:31:10.211Z,6.43
2018-05-04T11:33:37.737Z,5.43
2018-05-04T11:36:05.232Z,6.73
2018-05-04T11:38:32.776Z,6.87
2018-05-04T11:41:01.063Z,5.97
2018-05-04T11:43:28.622Z,6.67
2018-05-04T11:45:56.113Z,5.90
2018-05-04T11:48:23.634Z,5.50
2018-05-04T11:50:51.917Z,5.97
2018-05-04T11:53:19.438Z,5.83
2018-05-04T11:55:46.958Z,6.30
2018-05-04T11:58:14.497Z,4.90
2018-05-04T12:00:42.003Z,5.40
2018-05-04T12:03:09.508Z,5.90
2018-05-04T12:05:37.057Z,6.27
2018-05-04T12:08:05.344Z,4.80
2018-05-04T12:10:32.874Z,5.30
2018-05-04T12:13:00.414Z,5.10
2018-05-04T12:15:27.973Z,5.37
2018-05-04T12:17:55.480Z,4.87
2018-05-04T12:20:23.004Z,5.20
2018-05-04T12:22:50.576Z,5.23
2018-05-04T12:25:18.090Z,5.70
2018-05-04T12:27:45.616Z,5.60
2018-05-04T12:30:13.158Z,6.00
2018-05-04T12:32:41.432Z,5.33
2018-05-04T12:35:09.709Z,5.60
2018-05-04T12:37:37.995Z,5.10
2018-05-04T12:40:06.252Z,4.50
2018-05-04T12:42:34.577Z,4.73
2018-05-04T12:45:02.093Z,4.70
2018-05-04T12:47:30.372Z,4.90
2018-05-04T12:49:58.668Z,5.13
2018-05-04T12:52:26.920Z,5.43
2018-05-04T12:54:55.240Z,4.90
2018-05-04T12:57:22.781Z,5.13
2018-05-04T12:59:50.322Z,5.53
2018-05-04T13:02:18.621Z,5.50
2018-05-04T13:04:46.153Z,5.50
2018-05-04T13:07:14.461Z,4.83
2018-05-04T13:09:42.008Z,5.63
2018-05-04T13:12:09.530Z,4.90
2018-05-04T13:14:37.055Z,5.30
2018-05-04T13:17:04.593Z,5.20
2018-05-04T13:19:32.108Z,5.33
2018-05-04T13:21:59.673Z,5.87
2018-05-04T13:24:27.178Z,5.03
2018-05-04T13:26:54.702Z,4.93
2018-05-04T13:29:22.982Z,5.10
2018-05-04T13:31:51.237Z,5.90
2018-05-04T13:34:18.755Z,4.77
2018-05-04T13:36:46.268Z,5.10
2018-05-04T13:39:14.554Z,5.40
2018-05-04T13:41:42.824Z,4.87
2018-05-04T13:44:11.116Z,4.80
2018-05-04T13:46:39.421Z,5.23
2018-05-04T13:49:06.947Z,4.93
2018-05-04T13:51:35.341Z,4.87
2018-05-04T13:54:02.760Z,4.77
2018-05-04T13:56:31.062Z,5.23
2018-05-04T13:58:59.374Z,5.57
2018-05-04T14:01:27.665Z,4.70
2018-05-04T14:03:55.269Z,5.10
2018-05-04T14:06:22.755Z,5.40
2018-05-04T14:08:50.266Z,4.60
2018-05-04T14:11:17.759Z,5.20
2018-05-04T14:13:45.316Z,5.10
2018-05-04T14:16:12.854Z,5.10
2018-05-04T14:18:41.167Z,5.57
2018-05-04T14:21:08.672Z,5.00
2018-05-04T14:23:36.197Z,4.87
2018-05-04T14:26:03.733Z,5.57
2018-05-04T14:28:31.258Z,5.17
2018-05-04T14:30:58.818Z,4.90
2018-05-04T14:33:26.345Z,5.53
2018-05-04T14:35:53.910Z,5.20
2018-05-04T14:38:21.408Z,5.10
2018-05-04T14:40:49.722Z,4.93
2018-05-04T14:43:17.261Z,5.03
2018-05-04T14:45:44.768Z,5.10
2018-05-04T14:48:12.301Z,4.80
2018-05-04T14:50:39.797Z,4.87
2018-05-04T14:53:08.112Z,5.60
2018-05-04T14:55:35.615Z,5.40
2018-05-04T14:58:03.158Z,4.80
2018-05-04T15:00:30.645Z,4.70
2018-05-04T15:02:58.216Z,5.13
2018-05-04T15:05:25.730Z,5.20
2018-05-04T15:07:53.262Z,5.40
2018-05-04T15:10:20.816Z,4.73
2018-05-04T15:12:49.096Z,4.93
2018-05-04T15:15:16.614Z,4.80
2018-05-04T15:17:44.178Z,5.17
2018-05-04T15:20:11.693Z,4.90
2018-05-04T15:22:39.208Z,4.90
2018-05-04T15:25:06.790Z,5.30
2018-05-04T15:27:39.150Z,5.10
2018-05-04T15:30:06.694Z,5.00
2018-05-04T15:32:34.215Z,4.90
2018-05-04T15:35:01.740Z,4.70
2018-05-04T15:37:29.244Z,5.00
2018-05-04T15:39:56.781Z,5.10
2018-05-04T15:42:24.293Z,5.10
2018-05-04T15:44:52.607Z,4.70
2018-05-04T15:47:20.137Z,5.47
2018-05-04T15:49:48.472Z,4.90
2018-05-04T15:52:15.966Z,5.40
2018-05-04T15:54:44.324Z,5.10
2018-05-04T15:57:11.801Z,5.10
2018-05-04T15:59:40.093Z,5.43
2018-05-04T16:02:07.645Z,4.93
2018-05-04T16:04:35.915Z,5.23
2018-05-04T16:07:04.228Z,4.80
2018-05-04T16:09:31.793Z,5.00
2018-05-04T16:11:59.309Z,5.33
2018-05-04T16:14:27.617Z,5.77
2018-05-04T16:16:55.133Z,6.40
2018-05-04T16:19:22.661Z,5.00
2018-05-04T16:21:50.182Z,4.97
2018-05-04T16:24:18.475Z,5.40
2018-05-04T16:26:46.743Z,4.97
2018-05-04T16:29:14.311Z,5.53
2018-05-04T16:31:41.868Z,5.20
2018-05-04T16:34:10.157Z,5.90
2018-05-04T16:36:37.685Z,5.80
2018-05-04T16:39:05.209Z,5.80
2018-05-04T16:41:32.849Z,6.00
2018-05-04T16:44:00.311Z,6.30
2018-05-04T16:46:33.634Z,5.50
2018-05-04T16:49:07.934Z,5.13
2018-05-04T16:51:36.319Z,5.17
2018-05-04T16:54:03.858Z,5.63
2018-05-04T16:56:31.374Z,5.53
2018-05-04T16:58:58.919Z,5.83
2018-05-04T17:01:27.221Z,5.90
2018-05-04T17:03:54.710Z,5.37
2018-05-04T17:06:22.216Z,5.50
2018-05-04T17:08:50.550Z,5.23
2018-05-04T17:11:18.077Z,4.70
2018-05-04T17:13:45.615Z,5.40
2018-05-04T17:16:13.872Z,5.90
2018-05-04T17:18:42.165Z,5.23
2018-05-04T17:21:10.458Z,5.67
2018-05-04T17:23:37.975Z,5.70
2018-05-04T17:26:05.517Z,5.80
2018-05-04T17:28:33.088Z,5.40
2018-05-04T17:31:00.576Z,5.60
2018-05-04T17:33:28.887Z,5.90
2018-05-04T17:35:56.402Z,5.80
2018-05-04T17:38:24.710Z,5.57
2018-05-04T17:40:52.204Z,5.80
2018-05-04T17:43:19.699Z,6.20
2018-05-04T17:45:47.993Z,5.03
2018-05-04T17:48:15.518Z,5.47
2018-05-04T17:50:43.053Z,5.87
2018-05-04T17:53:10.555Z,5.63
2018-05-04T17:55:38.839Z,5.67
2018-05-04T17:58:06.343Z,5.67
2018-05-04T18:00:33.842Z,5.73
2018-05-04T18:03:02.132Z,5.00
2018-05-04T18:05:30.437Z,5.47
2018-05-04T18:07:57.976Z,5.80
2018-05-04T18:10:25.501Z,5.80
2018-05-04T18:12:53.043Z,5.80
2018-05-04T18:15:20.538Z,5.57
2018-05-04T18:17:48.810Z,5.60
2018-05-04T18:20:17.078Z,5.10
2018-05-04T18:22:45.376Z,5.90
2018-05-04T18:25:12.902Z,5.97
2018-05-04T18:27:40.402Z,5.47
2018-05-04T18:30:07.936Z,5.43
2018-05-04T18:32:36.213Z,4.53
2018-05-04T18:35:04.501Z,4.13
2018-05-04T18:37:32.037Z,4.07
2018-05-04T18:40:00.306Z,4.57
2018-05-04T18:42:27.814Z,4.20
2018-05-04T18:44:55.345Z,4.03
2018-05-04T18:47:23.655Z,3.90
2018-05-04T18:49:51.217Z,4.00
2018-05-04T18:52:18.758Z,4.60
2018-05-04T18:54:46.313Z,4.70
2018-05-04T18:57:13.841Z,4.37
2018-05-04T18:59:41.377Z,4.10
2018-05-04T19:02:08.880Z,3.90
2018-05-04T19:04:37.213Z,4.43
2018-05-04T19:07:04.758Z,3.60
2018-05-04T19:09:32.314Z,4.03
2018-05-04T19:12:00.466Z,4.30
2018-05-04T19:14:28.145Z,4.00
2018-05-04T19:16:55.700Z,4.20
2018-05-04T19:19:23.266Z,4.50
2018-05-04T19:21:51.081Z,4.23
2018-05-04T19:24:19.736Z,4.17
2018-05-04T19:26:47.320Z,4.87
2018-05-04T19:29:15.024Z,5.97
2018-05-04T19:31:42.578Z,4.90
2018-05-04T19:34:10.444Z,5.83
2018-05-04T19:36:38.230Z,5.00
2018-05-04T19:39:06.577Z,3.87
2018-05-04T19:41:34.182Z,4.60
2018-05-04T19:44:01.694Z,4.77
2018-05-04T19:46:30.101Z,5.03
2018-05-04T19:48:57.762Z,4.80
2018-05-04T19:51:25.493Z,4.57
2018-05-04T19:53:53.063Z,4.80
2018-05-04T19:56:20.624Z,5.00
2018-05-04T19:58:48.447Z,5.77
2018-05-04T20:01:16.229Z,5.30
2018-05-04T20:03:44.747Z,5.23
2018-05-04T20:06:12.282Z,4.67
2018-05-04T20:08:41.785Z,4.60
2018-05-04T20:11:10.068Z,4.63
2018-05-04T20:13:37.685Z,4.30
2018-05-04T20:16:05.478Z,5.23
2018-05-04T20:18:33.083Z,5.30
2018-05-04T20:21:00.774Z,5.20
2018-05-04T20:23:28.326Z,5.90
2018-05-04T20:25:55.849Z,5.30
2018-05-04T20:28:23.467Z,5.20
2018-05-04T20:30:51.219Z,5.13
2018-05-04T20:33:18.765Z,4.93
2018-05-04T20:35:46.260Z,4.97
2018-05-04T20:38:14.571Z,4.50
2018-05-04T20:40:42.384Z,5.20
2018-05-04T20:43:10.227Z,4.60
2018-05-04T20:45:37.843Z,4.93
2018-05-04T20:48:06.138Z,5.07
2018-05-04T20:50:33.724Z,5.90
2018-05-04T20:53:01.745Z,5.80
2018-05-04T20:55:29.323Z,7.43
2018-05-04T20:57:56.853Z,7.10
2018-05-04T21:00:24.343Z,6.20
2018-05-04T21:02:52.461Z,5.97
2018-05-04T21:05:20.074Z,6.83
2018-05-04T21:07:47.709Z,6.10
2018-05-04T21:10:15.980Z,6.60
2018-05-04T21:12:43.603Z,6.30
2018-05-04T21:15:11.677Z,6.10
2018-05-04T21:17:39.278Z,5.87
2018-05-04T21:20:07.579Z,5.40
2018-05-04T21:22:35.115Z,6.00
2018-05-04T21:25:03.004Z,6.10
2018-05-04T21:27:30.635Z,6.80
2018-05-04T21:29:58.226Z,7.40
2018-05-04T21:32:25.745Z,7.30
2018-05-04T21:34:53.297Z,7.23
2018-05-04T21:37:20.825Z,6.40
2018-05-04T21:39:48.325Z,6.60
2018-05-04T21:42:15.852Z,5.53
2018-05-04T21:44:43.391Z,5.50
2018-05-04T21:47:11.638Z,5.10
2018-05-04T21:49:39.920Z,5.40
2018-05-04T21:52:08.230Z,5.23
2018-05-04T21:54:35.742Z,5.13
2018-05-04T21:57:04.047Z,5.27
2018-05-04T21:59:31.613Z,5.13
2018-05-04T22:01:59.149Z,5.47
2018-05-04T22:04:27.449Z,5.90
2018-05-04T22:06:54.994Z,5.93
2018-05-04T22:09:22.507Z,6.10
2018-05-04T22:11:50.026Z,6.40
2018-05-04T22:14:17.567Z,6.10
2018-05-04T22:16:45.085Z,5.90
2018-05-04T22:19:12.597Z,5.83
2018-05-04T22:21:40.123Z,5.57
2018-05-04T22:24:07.686Z,6.40
2018-05-04T22:26:36.070Z,6.03
2018-05-04T22:29:04.279Z,6.10
2018-05-04T22:31:31.784Z,5.70
2018-05-04T22:33:59.290Z,5.83
2018-05-04T22:36:26.806Z,5.80
2018-05-04T22:38:54.332Z,5.30
2018-05-04T22:41:21.861Z,5.80
2018-05-04T22:43:49.394Z,5.83
2018-05-04T22:46:17.674Z,5.70
2018-05-04T22:48:45.958Z,5.13
2018-05-04T22:51:13.522Z,5.33
2018-05-04T22:53:41.093Z,5.30
2018-05-04T22:56:08.628Z,5.93
2018-05-04T22:58:36.162Z,5.67
2018-05-04T23:01:03.671Z,5.37
2018-05-04T23:03:31.203Z,5.43
2018-05-04T23:05:59.492Z,5.27
2018-05-04T23:08:27.020Z,5.40
2018-05-04T23:10:54.550Z,5.27
2018-05-04T23:13:22.077Z,5.20
2018-05-04T23:15:49.582Z,5.10
2018-05-04T23:18:17.123Z,6.03
2018-05-04T23:20:44.666Z,5.23
2018-05-04T23:23:12.234Z,4.47
2018-05-04T23:25:39.733Z,4.67
2018-05-04T23:28:07.237Z,4.63
2018-05-04T23:30:34.750Z,5.07
2018-05-04T23:33:02.288Z,5.60
2018-05-04T23:35:29.817Z,5.40
2018-05-04T23:37:58.105Z,5.10
2018-05-04T23:40:25.628Z,5.80
2018-05-04T23:42:53.895Z,5.07
2018-05-04T23:45:22.176Z,5.10
2018-05-04T23:47:50.486Z,4.80
2018-05-04T23:50:17.988Z,5.40
2018-05-04T23:52:45.548Z,5.10
2018-05-04T23:55:13.082Z,5.00
2018-05-04T23:57:40.589Z,5.03
